createdAt,value
2019-05-19T00:00:41.709Z,949.21
2019-05-19T00:01:41.690Z,949.22
2019-05-19T00:02:41.664Z,949.25
2019-05-19T00:03:41.638Z,949.24
2019-05-19T00:04:41.620Z,949.25
2019-05-19T00:05:41.593Z,949.25
2019-05-19T00:06:41.572Z,949.26
2019-05-19T00:07:41.551Z,949.25
2019-05-19T00:08:41.528Z,949.23
2019-05-19T00:09:41.505Z,949.20
2019-05-19T00:10:41.485Z,949.17
2019-05-19T00:11:41.461Z,949.17
2019-05-19T00:12:41.449Z,949.19
2019-05-19T00:13:41.431Z,949.21
2019-05-19T00:14:41.397Z,949.18
2019-05-19T00:15:41.377Z,949.15
2019-05-19T00:16:41.351Z,949.17
2019-05-19T00:17:41.328Z,949.16
2019-05-19T00:18:41.306Z,949.19
2019-05-19T00:19:41.284Z,949.15
2019-05-19T00:20:41.294Z,949.15
2019-05-19T00:21:41.241Z,949.19
2019-05-19T00:22:41.967Z,949.20
2019-05-19T00:23:41.195Z,949.22
2019-05-19T00:24:41.174Z,949.17
2019-05-19T00:25:41.150Z,949.16
2019-05-19T00:26:41.131Z,949.18
2019-05-19T00:27:41.109Z,949.17
2019-05-19T00:28:41.084Z,949.18
2019-05-19T00:29:41.061Z,949.18
2019-05-19T00:30:41.048Z,949.18
2019-05-19T00:31:41.019Z,949.18
2019-05-19T00:32:40.997Z,949.14
2019-05-19T00:33:41.723Z,949.16
2019-05-19T00:34:40.950Z,949.17
2019-05-19T00:35:40.927Z,949.19
2019-05-19T00:36:40.907Z,949.19
2019-05-19T00:37:40.884Z,949.16
2019-05-19T00:38:40.861Z,949.19
2019-05-19T00:39:40.839Z,949.19
2019-05-19T00:40:40.817Z,949.19
2019-05-19T00:41:40.794Z,949.18
2019-05-19T00:42:40.772Z,949.19
2019-05-19T00:43:40.754Z,949.18
2019-05-19T00:44:42.279Z,949.18
2019-05-19T00:45:40.706Z,949.22
2019-05-19T00:46:40.683Z,949.18
2019-05-19T00:47:40.661Z,949.16
2019-05-19T00:48:40.642Z,949.20
2019-05-19T00:49:41.799Z,949.21
2019-05-19T00:50:40.593Z,949.18
2019-05-19T00:51:40.571Z,949.19
2019-05-19T00:52:40.549Z,949.21
2019-05-19T00:53:40.527Z,949.20
2019-05-19T00:54:40.504Z,949.23
2019-05-19T00:55:40.482Z,949.21
2019-05-19T00:56:40.459Z,949.22
2019-05-19T00:57:40.438Z,949.19
2019-05-19T00:58:40.414Z,949.17
2019-05-19T00:59:40.392Z,949.17
2019-05-19T01:00:40.369Z,949.14
2019-05-19T01:01:40.347Z,949.14
2019-05-19T01:02:40.325Z,949.17
2019-05-19T01:03:40.302Z,949.16
2019-05-19T01:04:40.284Z,949.16
2019-05-19T01:05:41.008Z,949.13
2019-05-19T01:06:40.233Z,949.18
2019-05-19T01:07:40.213Z,949.15
2019-05-19T01:08:40.190Z,949.15
2019-05-19T01:09:40.167Z,949.16
2019-05-19T01:10:40.145Z,949.13
2019-05-19T01:11:40.122Z,949.16
2019-05-19T01:12:40.100Z,949.19
2019-05-19T01:13:40.076Z,949.14
2019-05-19T01:14:40.058Z,949.16
2019-05-19T01:15:40.036Z,949.17
2019-05-19T01:16:40.011Z,949.18
2019-05-19T01:17:39.989Z,949.18
2019-05-19T01:18:39.966Z,949.18
2019-05-19T01:19:39.942Z,949.21
2019-05-19T01:20:39.920Z,949.17
2019-05-19T01:21:39.898Z,949.22
2019-05-19T01:22:40.631Z,949.23
2019-05-19T01:23:39.851Z,949.22
2019-05-19T01:24:39.829Z,949.25
2019-05-19T01:25:39.806Z,949.25
2019-05-19T01:26:39.789Z,949.24
2019-05-19T01:27:39.760Z,949.24
2019-05-19T01:28:39.738Z,949.26
2019-05-19T01:29:39.715Z,949.28
2019-05-19T01:30:39.693Z,949.25
2019-05-19T01:31:39.670Z,949.25
2019-05-19T01:32:39.652Z,949.25
2019-05-19T01:33:40.374Z,949.26
2019-05-19T01:34:39.602Z,949.22
2019-05-19T01:35:39.582Z,949.20
2019-05-19T01:36:39.564Z,949.16
2019-05-19T01:37:39.533Z,949.17
2019-05-19T01:38:39.511Z,949.19
2019-05-19T01:39:39.487Z,949.19
2019-05-19T01:40:39.468Z,949.18
2019-05-19T01:41:39.447Z,949.18
2019-05-19T01:42:39.424Z,949.21
2019-05-19T01:43:39.398Z,949.21
2019-05-19T01:44:39.376Z,949.14
2019-05-19T01:45:39.353Z,949.17
2019-05-19T01:46:39.330Z,949.15
2019-05-19T01:47:39.307Z,949.14
2019-05-19T01:48:39.283Z,949.12
2019-05-19T01:49:40.013Z,949.11
2019-05-19T01:50:39.238Z,949.13
2019-05-19T01:51:39.218Z,949.13
2019-05-19T01:52:39.196Z,949.11
2019-05-19T01:53:39.170Z,949.12
2019-05-19T01:54:39.149Z,949.12
2019-05-19T01:55:39.125Z,949.12
2019-05-19T01:56:39.106Z,949.09
2019-05-19T01:57:39.082Z,949.10
2019-05-19T01:58:39.057Z,949.10
2019-05-19T01:59:39.035Z,949.10
2019-05-19T02:00:39.012Z,949.06
2019-05-19T02:01:38.989Z,949.05
2019-05-19T02:02:38.968Z,949.07
2019-05-19T02:03:38.942Z,949.07
2019-05-19T02:04:38.919Z,949.05
2019-05-19T02:05:38.897Z,949.02
2019-05-19T02:06:38.876Z,949.04
2019-05-19T02:07:38.860Z,949.00
2019-05-19T02:08:38.835Z,948.98
2019-05-19T02:09:38.805Z,948.98
2019-05-19T02:10:38.785Z,948.96
2019-05-19T02:11:38.779Z,948.98
2019-05-19T02:12:38.739Z,948.95
2019-05-19T02:13:38.713Z,948.98
2019-05-19T02:14:38.692Z,948.92
2019-05-19T02:15:38.670Z,948.97
2019-05-19T02:16:39.398Z,948.95
2019-05-19T02:17:38.623Z,948.97
2019-05-19T02:18:38.605Z,948.94
2019-05-19T02:19:38.581Z,948.97
2019-05-19T02:20:38.557Z,948.94
2019-05-19T02:21:38.537Z,948.91
2019-05-19T02:22:38.513Z,948.93
2019-05-19T02:23:38.487Z,948.90
2019-05-19T02:24:38.464Z,948.93
2019-05-19T02:25:38.448Z,948.90
2019-05-19T02:26:38.419Z,948.92
2019-05-19T02:27:38.397Z,948.91
2019-05-19T02:28:38.373Z,948.91
2019-05-19T02:29:38.351Z,948.94
2019-05-19T02:30:38.327Z,948.89
2019-05-19T02:31:38.306Z,948.97
2019-05-19T02:32:38.287Z,948.92
2019-05-19T02:33:38.262Z,948.96
2019-05-19T02:34:38.237Z,948.93
2019-05-19T02:35:38.215Z,948.91
2019-05-19T02:36:38.191Z,948.92
2019-05-19T02:37:38.178Z,948.92
2019-05-19T02:38:38.207Z,948.92
2019-05-19T02:39:38.132Z,948.90
2019-05-19T02:40:38.100Z,948.88
2019-05-19T02:41:38.082Z,948.88
2019-05-19T02:42:38.061Z,948.85
2019-05-19T02:43:38.033Z,948.86
2019-05-19T02:44:38.011Z,948.88
2019-05-19T02:45:37.986Z,948.86
2019-05-19T02:46:37.965Z,948.83
2019-05-19T02:47:37.945Z,948.83
2019-05-19T02:48:38.672Z,948.85
2019-05-19T02:49:37.897Z,948.82
2019-05-19T02:50:51.473Z,948.80
2019-05-19T02:51:37.851Z,948.83
2019-05-19T02:52:37.830Z,948.80
2019-05-19T02:53:37.807Z,948.84
2019-05-19T02:54:37.784Z,948.78
2019-05-19T02:55:37.768Z,948.81
2019-05-19T02:56:37.740Z,948.82
2019-05-19T02:57:37.728Z,948.79
2019-05-19T02:58:37.696Z,948.85
2019-05-19T02:59:37.675Z,948.81
2019-05-19T03:00:37.650Z,948.82
2019-05-19T03:01:37.625Z,948.81
2019-05-19T03:02:37.604Z,948.83
2019-05-19T03:03:37.588Z,948.79
2019-05-19T03:04:39.065Z,948.79
2019-05-19T03:05:37.545Z,948.79
2019-05-19T03:06:37.514Z,948.81
2019-05-19T03:07:37.491Z,948.80
2019-05-19T03:08:37.473Z,948.74
2019-05-19T03:09:37.446Z,948.77
2019-05-19T03:10:37.445Z,948.73
2019-05-19T03:11:37.402Z,948.72
2019-05-19T03:12:37.383Z,948.72
2019-05-19T03:13:37.356Z,948.74
2019-05-19T03:14:37.333Z,948.71
2019-05-19T03:15:37.314Z,948.76
2019-05-19T03:16:37.293Z,948.73
2019-05-19T03:17:37.267Z,948.78
2019-05-19T03:18:37.244Z,948.78
2019-05-19T03:19:37.223Z,948.76
2019-05-19T03:20:37.199Z,948.76
2019-05-19T03:21:37.177Z,948.77
2019-05-19T03:22:37.156Z,948.74
2019-05-19T03:23:37.135Z,948.76
2019-05-19T03:24:37.110Z,948.75
2019-05-19T03:25:37.113Z,948.72
2019-05-19T03:26:37.075Z,948.72
2019-05-19T03:27:37.046Z,948.73
2019-05-19T03:28:37.022Z,948.71
2019-05-19T03:29:36.997Z,948.68
2019-05-19T03:30:36.976Z,948.73
2019-05-19T03:31:36.954Z,948.72
2019-05-19T03:32:37.686Z,948.74
2019-05-19T03:33:36.907Z,948.74
2019-05-19T03:34:36.886Z,948.75
2019-05-19T03:35:36.864Z,948.72
2019-05-19T03:36:36.842Z,948.71
2019-05-19T03:37:36.816Z,948.70
2019-05-19T03:38:36.798Z,948.67
2019-05-19T03:39:36.774Z,948.67
2019-05-19T03:40:36.753Z,948.69
2019-05-19T03:41:36.728Z,948.65
2019-05-19T03:42:36.707Z,948.64
2019-05-19T03:43:36.686Z,948.66
2019-05-19T03:44:36.665Z,948.64
2019-05-19T03:45:36.640Z,948.68
2019-05-19T03:46:36.617Z,948.70
2019-05-19T03:47:36.599Z,948.65
2019-05-19T03:48:37.344Z,948.67
2019-05-19T03:49:36.558Z,948.65
2019-05-19T03:50:36.547Z,948.67
2019-05-19T03:51:36.507Z,948.62
2019-05-19T03:52:36.484Z,948.63
2019-05-19T03:53:36.466Z,948.65
2019-05-19T03:54:36.438Z,948.66
2019-05-19T03:55:36.415Z,948.69
2019-05-19T03:56:36.408Z,948.64
2019-05-19T03:57:36.375Z,948.66
2019-05-19T03:58:36.353Z,948.65
2019-05-19T03:59:36.331Z,948.64
2019-05-19T04:00:36.305Z,948.65
2019-05-19T04:01:36.284Z,948.63
2019-05-19T04:02:36.257Z,948.62
2019-05-19T04:03:36.239Z,948.61
2019-05-19T04:04:36.965Z,948.61
2019-05-19T04:05:36.212Z,948.60
2019-05-19T04:06:36.169Z,948.64
2019-05-19T04:07:36.149Z,948.64
2019-05-19T04:08:36.123Z,948.63
2019-05-19T04:09:36.103Z,948.63
2019-05-19T04:10:36.079Z,948.62
2019-05-19T04:11:36.062Z,948.64
2019-05-19T04:12:36.037Z,948.65
2019-05-19T04:13:36.012Z,948.66
2019-05-19T04:14:36.003Z,948.63
2019-05-19T04:15:37.477Z,948.66
2019-05-19T04:16:35.947Z,948.65
2019-05-19T04:17:35.921Z,948.60
2019-05-19T04:18:35.899Z,948.61
2019-05-19T04:19:35.881Z,948.62
2019-05-19T04:20:35.855Z,948.62
2019-05-19T04:21:48.143Z,948.62
2019-05-19T04:22:35.811Z,948.64
2019-05-19T04:23:35.869Z,948.62
2019-05-19T04:24:35.765Z,948.66
2019-05-19T04:25:35.744Z,948.64
2019-05-19T04:26:35.723Z,948.65
2019-05-19T04:27:35.699Z,948.64
2019-05-19T04:28:35.678Z,948.62
2019-05-19T04:29:39.158Z,948.65
2019-05-19T04:30:35.638Z,948.64
2019-05-19T04:31:35.620Z,948.68
2019-05-19T04:32:35.592Z,948.67
2019-05-19T04:33:35.562Z,948.64
2019-05-19T04:34:35.541Z,948.66
2019-05-19T04:35:35.526Z,948.68
2019-05-19T04:36:35.497Z,948.68
2019-05-19T04:37:35.474Z,948.70
2019-05-19T04:38:35.453Z,948.69
2019-05-19T04:39:35.429Z,948.68
2019-05-19T04:40:35.409Z,948.70
2019-05-19T04:41:35.383Z,948.69
2019-05-19T04:42:35.363Z,948.72
2019-05-19T04:43:35.338Z,948.72
2019-05-19T04:44:35.318Z,948.69
2019-05-19T04:45:35.296Z,948.76
2019-05-19T04:46:35.274Z,948.74
2019-05-19T04:47:35.256Z,948.72
2019-05-19T04:48:35.241Z,948.74
2019-05-19T04:49:35.205Z,948.72
2019-05-19T04:50:35.187Z,948.70
2019-05-19T04:51:35.170Z,948.73
2019-05-19T04:52:35.144Z,948.74
2019-05-19T04:53:35.116Z,948.71
2019-05-19T04:54:35.094Z,948.72
2019-05-19T04:55:35.072Z,948.75
2019-05-19T04:56:35.050Z,948.70
2019-05-19T04:57:35.027Z,948.77
2019-05-19T04:58:35.006Z,948.74
2019-05-19T04:59:34.981Z,948.74
2019-05-19T05:00:34.961Z,948.77
2019-05-19T05:01:34.985Z,948.74
2019-05-19T05:02:34.916Z,948.72
2019-05-19T05:03:34.895Z,948.71
2019-05-19T05:04:34.874Z,948.69
2019-05-19T05:05:34.848Z,948.69
2019-05-19T05:06:34.827Z,948.71
2019-05-19T05:07:34.808Z,948.71
2019-05-19T05:08:34.784Z,948.72
2019-05-19T05:09:34.760Z,948.72
2019-05-19T05:10:34.750Z,948.74
2019-05-19T05:11:34.716Z,948.72
2019-05-19T05:12:34.695Z,948.74
2019-05-19T05:13:34.671Z,948.75
2019-05-19T05:14:34.649Z,948.74
2019-05-19T05:15:35.383Z,948.72
2019-05-19T05:16:34.605Z,948.75
2019-05-19T05:17:34.583Z,948.72
2019-05-19T05:18:34.560Z,948.70
2019-05-19T05:19:34.539Z,948.72
2019-05-19T05:20:34.516Z,948.72
2019-05-19T05:21:34.494Z,948.70
2019-05-19T05:22:34.471Z,948.67
2019-05-19T05:23:34.449Z,948.68
2019-05-19T05:24:34.437Z,948.70
2019-05-19T05:25:34.407Z,948.65
2019-05-19T05:26:34.383Z,948.74
2019-05-19T05:27:34.361Z,948.74
2019-05-19T05:28:34.339Z,948.72
2019-05-19T05:29:34.316Z,948.69
2019-05-19T05:30:34.295Z,948.73
2019-05-19T05:31:34.278Z,948.74
2019-05-19T05:32:34.251Z,948.72
2019-05-19T05:33:34.247Z,948.72
2019-05-19T05:34:34.211Z,948.66
2019-05-19T05:35:34.207Z,948.69
2019-05-19T05:36:34.164Z,948.67
2019-05-19T05:37:34.139Z,948.67
2019-05-19T05:38:34.118Z,948.67
2019-05-19T05:39:34.094Z,948.67
2019-05-19T05:40:34.074Z,948.66
2019-05-19T05:41:34.051Z,948.65
2019-05-19T05:42:34.028Z,948.67
2019-05-19T05:43:34.007Z,948.74
2019-05-19T05:44:33.986Z,948.75
2019-05-19T05:45:33.962Z,948.73
2019-05-19T05:46:33.940Z,948.75
2019-05-19T05:47:33.920Z,948.74
2019-05-19T05:48:35.406Z,948.72
2019-05-19T05:49:33.874Z,948.78
2019-05-19T05:50:33.858Z,948.78
2019-05-19T05:51:33.830Z,948.77
2019-05-19T05:52:38.576Z,948.77
2019-05-19T05:53:33.784Z,948.75
2019-05-19T05:54:33.762Z,948.77
2019-05-19T05:55:33.746Z,948.79
2019-05-19T05:56:33.719Z,948.78
2019-05-19T05:57:33.695Z,948.79
2019-05-19T05:58:33.672Z,948.80
2019-05-19T05:59:33.650Z,948.80
2019-05-19T06:00:33.630Z,948.78
2019-05-19T06:01:33.608Z,948.78
2019-05-19T06:02:33.584Z,948.80
2019-05-19T06:03:33.561Z,948.81
2019-05-19T06:04:33.542Z,948.85
2019-05-19T06:05:33.519Z,948.87
2019-05-19T06:06:33.495Z,948.89
2019-05-19T06:07:33.472Z,948.86
2019-05-19T06:08:33.450Z,948.87
2019-05-19T06:09:33.427Z,948.82
2019-05-19T06:10:33.410Z,948.83
2019-05-19T06:11:33.385Z,948.84
2019-05-19T06:12:33.362Z,948.84
2019-05-19T06:13:33.339Z,948.83
2019-05-19T06:14:33.319Z,948.84
2019-05-19T06:15:33.296Z,948.87
2019-05-19T06:16:33.273Z,948.85
2019-05-19T06:17:33.254Z,948.85
2019-05-19T06:18:33.229Z,948.87
2019-05-19T06:19:33.208Z,948.86
2019-05-19T06:20:33.934Z,948.85
2019-05-19T06:21:33.164Z,948.88
2019-05-19T06:22:33.143Z,948.90
2019-05-19T06:23:33.119Z,948.87
2019-05-19T06:24:33.097Z,948.89
2019-05-19T06:25:33.097Z,948.90
2019-05-19T06:26:33.068Z,948.92
2019-05-19T06:27:33.032Z,948.93
2019-05-19T06:28:33.011Z,948.89
2019-05-19T06:29:32.989Z,948.92
2019-05-19T06:30:32.967Z,948.88
2019-05-19T06:31:32.945Z,948.94
2019-05-19T06:32:32.923Z,948.89
2019-05-19T06:33:32.902Z,948.90
2019-05-19T06:34:32.883Z,948.91
2019-05-19T06:35:32.858Z,948.92
2019-05-19T06:36:35.087Z,948.91
2019-05-19T06:37:32.816Z,948.91
2019-05-19T06:38:32.798Z,948.93
2019-05-19T06:39:32.771Z,948.95
2019-05-19T06:40:32.749Z,948.96
2019-05-19T06:41:32.727Z,948.98
2019-05-19T06:42:32.712Z,948.96
2019-05-19T06:43:32.685Z,948.94
2019-05-19T06:44:32.662Z,948.94
2019-05-19T06:45:32.654Z,948.90
2019-05-19T06:46:32.626Z,948.92
2019-05-19T06:47:32.609Z,948.90
2019-05-19T06:48:32.576Z,948.89
2019-05-19T06:49:32.556Z,948.85
2019-05-19T06:50:32.533Z,948.89
2019-05-19T06:51:32.511Z,948.87
2019-05-19T06:52:32.489Z,948.84
2019-05-19T06:53:32.465Z,948.86
2019-05-19T06:54:32.445Z,948.84
2019-05-19T06:55:32.431Z,948.86
2019-05-19T06:56:32.403Z,948.85
2019-05-19T06:57:32.379Z,948.84
2019-05-19T06:58:32.358Z,948.85
2019-05-19T06:59:32.337Z,948.85
2019-05-19T07:00:32.314Z,948.83
2019-05-19T07:01:32.296Z,948.82
2019-05-19T07:02:32.269Z,948.82
2019-05-19T07:03:32.248Z,948.84
2019-05-19T07:04:32.231Z,948.88
2019-05-19T07:05:32.204Z,948.80
2019-05-19T07:06:34.192Z,948.81
2019-05-19T07:07:32.161Z,948.84
2019-05-19T07:08:32.142Z,948.83
2019-05-19T07:09:32.130Z,948.82
2019-05-19T07:10:32.095Z,948.80
2019-05-19T07:11:32.075Z,948.84
2019-05-19T07:12:32.055Z,948.84
2019-05-19T07:13:32.030Z,948.80
2019-05-19T07:14:32.009Z,948.82
2019-05-19T07:15:31.987Z,948.77
2019-05-19T07:16:31.970Z,948.78
2019-05-19T07:17:31.946Z,948.78
2019-05-19T07:18:31.921Z,948.77
2019-05-19T07:19:31.918Z,948.76
2019-05-19T07:20:31.879Z,948.77
2019-05-19T07:21:31.861Z,948.78
2019-05-19T07:22:31.835Z,948.76
2019-05-19T07:23:31.814Z,948.78
2019-05-19T07:24:31.793Z,948.83
2019-05-19T07:25:31.772Z,948.86
2019-05-19T07:26:31.751Z,948.83
2019-05-19T07:27:31.734Z,948.84
2019-05-19T07:28:31.709Z,948.85
2019-05-19T07:29:31.689Z,948.81
2019-05-19T07:30:32.418Z,948.84
2019-05-19T07:31:31.645Z,948.84
2019-05-19T07:32:31.628Z,948.86
2019-05-19T07:33:31.602Z,948.82
2019-05-19T07:34:31.661Z,948.83
2019-05-19T07:35:31.561Z,948.83
2019-05-19T07:36:31.540Z,948.83
2019-05-19T07:37:31.528Z,948.86
2019-05-19T07:38:31.497Z,948.81
2019-05-19T07:39:31.479Z,948.84
2019-05-19T07:40:31.456Z,948.81
2019-05-19T07:41:31.435Z,948.86
2019-05-19T07:42:31.419Z,948.84
2019-05-19T07:43:31.395Z,948.85
2019-05-19T07:44:31.374Z,948.88
2019-05-19T07:45:31.353Z,948.89
2019-05-19T07:46:31.353Z,948.88
2019-05-19T07:47:31.312Z,948.87
2019-05-19T07:48:31.294Z,948.90
2019-05-19T07:49:31.271Z,948.92
2019-05-19T07:50:31.253Z,948.90
2019-05-19T07:51:31.992Z,948.89
2019-05-19T07:52:31.211Z,948.92
2019-05-19T07:53:42.177Z,948.92
2019-05-19T07:54:31.168Z,948.96
2019-05-19T07:55:31.147Z,948.95
2019-05-19T07:56:31.130Z,948.91
2019-05-19T07:57:31.108Z,948.90
2019-05-19T07:58:31.093Z,948.89
2019-05-19T07:59:31.066Z,948.90
2019-05-19T08:00:31.110Z,948.87
2019-05-19T08:01:31.026Z,948.88
2019-05-19T08:02:31.034Z,948.92
2019-05-19T08:03:31.038Z,948.93
2019-05-19T08:04:30.993Z,948.89
2019-05-19T08:05:30.945Z,948.90
2019-05-19T08:06:30.926Z,948.92
2019-05-19T08:07:30.909Z,948.94
2019-05-19T08:08:30.886Z,948.95
2019-05-19T08:09:30.863Z,948.95
2019-05-19T08:10:30.843Z,948.93
2019-05-19T08:11:30.824Z,948.94
2019-05-19T08:12:30.802Z,948.92
2019-05-19T08:13:30.781Z,948.91
2019-05-19T08:14:30.760Z,948.92
2019-05-19T08:15:30.744Z,948.89
2019-05-19T08:16:30.722Z,948.92
2019-05-19T08:17:30.699Z,948.91
2019-05-19T08:18:30.678Z,948.96
2019-05-19T08:19:30.705Z,948.94
2019-05-19T08:20:30.637Z,948.94
2019-05-19T08:21:30.619Z,948.91
2019-05-19T08:22:30.611Z,948.91
2019-05-19T08:23:30.575Z,948.90
2019-05-19T08:24:30.555Z,948.90
2019-05-19T08:25:30.545Z,948.88
2019-05-19T08:26:30.513Z,948.92
2019-05-19T08:27:30.492Z,948.92
2019-05-19T08:28:30.472Z,948.92
2019-05-19T08:29:30.451Z,948.93
2019-05-19T08:30:30.495Z,948.93
2019-05-19T08:31:30.467Z,948.89
2019-05-19T08:32:30.390Z,948.92
2019-05-19T08:33:30.374Z,948.91
2019-05-19T08:34:30.349Z,948.91
2019-05-19T08:35:30.327Z,948.90
2019-05-19T08:36:30.308Z,948.89
2019-05-19T08:37:30.286Z,948.93
2019-05-19T08:38:30.265Z,948.90
2019-05-19T08:39:30.246Z,948.86
2019-05-19T08:40:30.237Z,948.92
2019-05-19T08:41:30.203Z,948.85
2019-05-19T08:42:30.187Z,948.87
2019-05-19T08:43:30.160Z,948.85
2019-05-19T08:44:30.140Z,948.88
2019-05-19T08:45:30.120Z,948.86
2019-05-19T08:46:30.099Z,948.85
2019-05-19T08:47:30.077Z,948.80
2019-05-19T08:48:30.060Z,948.75
2019-05-19T08:49:30.112Z,948.76
2019-05-19T08:50:30.017Z,948.77
2019-05-19T08:51:29.996Z,948.75
2019-05-19T08:52:29.976Z,948.73
2019-05-19T08:53:29.954Z,948.71
2019-05-19T08:54:29.935Z,948.69
2019-05-19T08:55:29.915Z,948.69
2019-05-19T08:56:29.895Z,948.70
2019-05-19T08:57:29.873Z,948.69
2019-05-19T08:58:29.853Z,948.69
2019-05-19T08:59:29.833Z,948.67
2019-05-19T09:00:29.813Z,948.66
2019-05-19T09:01:29.793Z,948.69
2019-05-19T09:02:29.773Z,948.65
2019-05-19T09:03:29.752Z,948.68
2019-05-19T09:04:29.732Z,948.68
2019-05-19T09:05:29.717Z,948.66
2019-05-19T09:06:29.690Z,948.69
2019-05-19T09:07:29.670Z,948.65
2019-05-19T09:08:29.671Z,948.67
2019-05-19T09:09:29.632Z,948.68
2019-05-19T09:10:29.607Z,948.67
2019-05-19T09:11:29.588Z,948.67
2019-05-19T09:12:29.568Z,948.69
2019-05-19T09:13:29.546Z,948.66
2019-05-19T09:14:29.531Z,948.67
2019-05-19T09:15:29.506Z,948.67
2019-05-19T09:16:29.487Z,948.64
2019-05-19T09:17:29.465Z,948.65
2019-05-19T09:18:29.447Z,948.57
2019-05-19T09:19:29.425Z,948.60
2019-05-19T09:20:29.407Z,948.64
2019-05-19T09:21:29.393Z,948.65
2019-05-19T09:22:29.365Z,948.62
2019-05-19T09:23:29.352Z,948.64
2019-05-19T09:24:31.001Z,948.66
2019-05-19T09:25:29.304Z,948.69
2019-05-19T09:26:29.287Z,948.70
2019-05-19T09:27:29.266Z,948.68
2019-05-19T09:28:29.248Z,948.67
2019-05-19T09:29:29.226Z,948.62
2019-05-19T09:30:29.206Z,948.62
2019-05-19T09:31:29.189Z,948.59
2019-05-19T09:32:29.169Z,948.65
2019-05-19T09:33:29.148Z,948.62
2019-05-19T09:34:29.131Z,948.66
2019-05-19T09:35:29.109Z,948.68
2019-05-19T09:36:29.090Z,948.65
2019-05-19T09:37:29.073Z,948.65
2019-05-19T09:38:29.052Z,948.67
2019-05-19T09:39:29.031Z,948.67
2019-05-19T09:40:29.031Z,948.64
2019-05-19T09:41:28.995Z,948.71
2019-05-19T09:42:28.975Z,948.69
2019-05-19T09:43:28.957Z,948.67
2019-05-19T09:44:28.990Z,948.60
2019-05-19T09:45:28.918Z,948.61
2019-05-19T09:46:28.900Z,948.59
2019-05-19T09:47:28.881Z,948.61
2019-05-19T09:48:28.893Z,948.56
2019-05-19T09:49:28.843Z,948.58
2019-05-19T09:50:28.826Z,948.59
2019-05-19T09:51:28.807Z,948.60
2019-05-19T09:52:28.818Z,948.63
2019-05-19T09:53:28.773Z,948.65
2019-05-19T09:54:28.753Z,948.62
2019-05-19T09:55:28.733Z,948.65
2019-05-19T09:56:28.716Z,948.68
2019-05-19T09:57:28.697Z,948.63
2019-05-19T09:58:28.677Z,948.64
2019-05-19T09:59:28.659Z,948.59
2019-05-19T10:00:28.642Z,948.61
2019-05-19T10:01:28.623Z,948.62
2019-05-19T10:02:28.608Z,948.58
2019-05-19T10:03:28.589Z,948.57
2019-05-19T10:04:28.579Z,948.60
2019-05-19T10:05:28.551Z,948.60
2019-05-19T10:06:28.534Z,948.58
2019-05-19T10:07:28.517Z,948.57
2019-05-19T10:08:28.499Z,948.61
2019-05-19T10:09:28.482Z,948.57
2019-05-19T10:10:28.463Z,948.54
2019-05-19T10:11:28.467Z,948.49
2019-05-19T10:12:28.428Z,948.50
2019-05-19T10:13:29.161Z,948.50
2019-05-19T10:14:28.393Z,948.44
2019-05-19T10:15:28.405Z,948.44
2019-05-19T10:16:28.413Z,948.39
2019-05-19T10:17:28.339Z,948.41
2019-05-19T10:18:28.321Z,948.40
2019-05-19T10:19:28.304Z,948.48
2019-05-19T10:20:28.285Z,948.48
2019-05-19T10:21:28.266Z,948.48
2019-05-19T10:22:28.250Z,948.47
2019-05-19T10:23:28.230Z,948.46
2019-05-19T10:24:28.213Z,948.49
2019-05-19T10:25:28.192Z,948.47
2019-05-19T10:26:28.174Z,948.46
2019-05-19T10:27:28.155Z,948.44
2019-05-19T10:28:28.137Z,948.46
2019-05-19T10:29:28.258Z,948.41
2019-05-19T10:30:28.100Z,948.44
2019-05-19T10:31:28.080Z,948.42
2019-05-19T10:32:28.062Z,948.41
2019-05-19T10:33:28.045Z,948.44
2019-05-19T10:34:28.029Z,948.41
2019-05-19T10:35:28.007Z,948.48
2019-05-19T10:36:27.988Z,948.51
2019-05-19T10:37:27.966Z,948.47
2019-05-19T10:38:27.949Z,948.43
2019-05-19T10:39:27.930Z,948.48
2019-05-19T10:40:27.910Z,948.47
2019-05-19T10:41:27.892Z,948.43
2019-05-19T10:42:27.880Z,948.46
2019-05-19T10:43:27.857Z,948.41
2019-05-19T10:44:27.835Z,948.42
2019-05-19T10:45:27.823Z,948.43
2019-05-19T10:46:27.798Z,948.44
2019-05-19T10:47:27.780Z,948.43
2019-05-19T10:48:27.762Z,948.43
2019-05-19T10:49:27.743Z,948.38
2019-05-19T10:50:27.726Z,948.38
2019-05-19T10:51:27.726Z,948.38
2019-05-19T10:52:27.687Z,948.36
2019-05-19T10:53:27.669Z,948.35
2019-05-19T10:54:27.651Z,948.38
2019-05-19T10:55:36.159Z,948.36
2019-05-19T10:56:27.614Z,948.38
2019-05-19T10:57:27.595Z,948.38
2019-05-19T10:58:27.578Z,948.39
2019-05-19T10:59:27.559Z,948.35
2019-05-19T11:00:28.417Z,948.32
2019-05-19T11:01:27.529Z,948.31
2019-05-19T11:02:27.505Z,948.29
2019-05-19T11:03:27.490Z,948.32
2019-05-19T11:04:27.470Z,948.32
2019-05-19T11:05:27.450Z,948.28
2019-05-19T11:06:27.433Z,948.32
2019-05-19T11:07:27.465Z,948.29
2019-05-19T11:08:27.399Z,948.28
2019-05-19T11:09:27.381Z,948.25
2019-05-19T11:10:27.365Z,948.26
2019-05-19T11:11:27.346Z,948.21
2019-05-19T11:12:27.329Z,948.17
2019-05-19T11:13:27.309Z,948.17
2019-05-19T11:14:27.292Z,948.13
2019-05-19T11:15:27.278Z,948.19
2019-05-19T11:16:27.258Z,948.15
2019-05-19T11:17:27.241Z,948.15
2019-05-19T11:18:27.223Z,948.12
2019-05-19T11:19:27.204Z,948.17
2019-05-19T11:20:27.187Z,948.17
2019-05-19T11:21:27.174Z,948.22
2019-05-19T11:22:27.151Z,948.19
2019-05-19T11:23:27.146Z,948.22
2019-05-19T11:24:27.116Z,948.19
2019-05-19T11:25:34.182Z,948.19
2019-05-19T11:26:27.080Z,948.20
2019-05-19T11:27:27.065Z,948.26
2019-05-19T11:28:27.045Z,948.22
2019-05-19T11:29:27.026Z,948.17
2019-05-19T11:30:27.010Z,948.18
2019-05-19T11:31:26.991Z,948.13
2019-05-19T11:32:26.974Z,948.17
2019-05-19T11:33:26.955Z,948.12
2019-05-19T11:34:26.939Z,948.13
2019-05-19T11:35:26.920Z,948.09
2019-05-19T11:36:26.904Z,948.01
2019-05-19T11:37:26.884Z,948.01
2019-05-19T11:38:26.867Z,948.00
2019-05-19T11:39:26.849Z,947.99
2019-05-19T11:40:26.835Z,947.91
2019-05-19T11:41:26.814Z,947.90
2019-05-19T11:42:26.796Z,947.91
2019-05-19T11:43:26.785Z,947.95
2019-05-19T11:44:26.764Z,947.90
2019-05-19T11:45:26.742Z,947.95
2019-05-19T11:46:26.725Z,947.96
2019-05-19T11:47:26.710Z,947.90
2019-05-19T11:48:26.693Z,947.88
2019-05-19T11:49:26.676Z,947.93
2019-05-19T11:50:26.664Z,947.93
2019-05-19T11:51:26.638Z,947.89
2019-05-19T11:52:26.626Z,947.85
2019-05-19T11:53:26.603Z,947.86
2019-05-19T11:54:26.586Z,947.84
2019-05-19T11:55:26.568Z,947.85
2019-05-19T11:56:26.552Z,947.89
2019-05-19T11:57:26.531Z,947.89
2019-05-19T11:58:26.515Z,947.90
2019-05-19T11:59:27.249Z,947.89
2019-05-19T12:00:26.483Z,947.87
2019-05-19T12:01:26.480Z,947.91
2019-05-19T12:02:26.444Z,947.87
2019-05-19T12:03:26.427Z,947.86
2019-05-19T12:04:26.409Z,947.85
2019-05-19T12:05:26.411Z,947.87
2019-05-19T12:06:38.700Z,947.86
2019-05-19T12:07:26.359Z,947.88
2019-05-19T12:08:26.339Z,947.93
2019-05-19T12:09:26.327Z,947.95
2019-05-19T12:10:26.304Z,948.00
2019-05-19T12:11:26.290Z,948.01
2019-05-19T12:12:26.273Z,948.00
2019-05-19T12:13:26.254Z,947.95
2019-05-19T12:14:26.238Z,947.97
2019-05-19T12:15:26.222Z,947.97
2019-05-19T12:16:26.207Z,947.95
2019-05-19T12:17:26.191Z,947.98
2019-05-19T12:18:26.180Z,947.99
2019-05-19T12:19:26.157Z,947.92
2019-05-19T12:20:26.141Z,947.92
2019-05-19T12:21:26.125Z,947.94
2019-05-19T12:22:26.108Z,947.89
2019-05-19T12:23:26.093Z,947.92
2019-05-19T12:24:26.102Z,947.86
2019-05-19T12:25:26.064Z,947.86
2019-05-19T12:26:26.054Z,947.82
2019-05-19T12:27:26.029Z,947.78
2019-05-19T12:28:26.017Z,947.80